National Weather Service Raw Text Product

Displaying AFOS PIL: TAFALO Received: 2018-03-08 17:38 UTC


050 
FTUS43 KDMX 081738
TAFALO
TAF
KALO 081738Z 0818/0918 30007KT P6SM SKC
     FM090900 09004KT P6SM BKN100=